Blue Star 1 — SWET — position and weather

sailwx.info

Track history (hours):
 
Tides and Currents Weather Stations Pressure Air Temp Water Temp Dewpoint Dewpoint Depression Visibility Wind Speed Wind Dir Waves Ship Positions

Blue Star 1

Last reported at 2017-Apr-25 08:26 UTC. Time now 2017-Apr-25 08:43 UTC.
Position N 37°56' E 023°38'.

Length 176 m; draft 6.5 m.

Type: Passenger vessel. MMSI: 239710000.

Date/timePositionNaut miles runAvg speedWind from/ knotsBaromVisibWave heightAir tempDewpointWater temp
2017-Apr-25 08:26N 37°56' E 023°38'0 0.0
2017-Apr-25 07:59N 37°56' E 023°38'0 0.0
2017-Apr-25 07:29N 37°56' E 023°38'0 0.0
2017-Apr-25 06:59N 37°56' E 023°38'0 0.0
2017-Apr-25 06:29N 37°56' E 023°38'0 0.0
2017-Apr-25 05:59N 37°56' E 023°38'0 0.0
2017-Apr-25 05:29N 37°56' E 023°38'0 0.0
2017-Apr-25 04:59N 37°56' E 023°38'0 0.0
2017-Apr-25 04:29N 37°56' E 023°38'0 0.2
2017-Apr-25 04:01N 37°56' E 023°38'1019.6
2017-Apr-25 03:31N 37°47' E 023°42'1224.6
2017-Apr-25 03:01N 37°39' E 023°53'1624.0
2017-Apr-25 02:21N 37°42' E 024°13'926.0
2017-Apr-25 02:01N 37°48' E 024°21'1326.1
2017-Apr-25 01:30N 37°56' E 024°34'9 0.3
2017-Apr-23 21:15N 38°01' E 024°44'519.7
2017-Apr-23 21:00N 37°58' E 024°39'1019.5
2017-Apr-23 20:30N 37°52' E 024°30'1019.5
2017-Apr-23 20:01N 37°46' E 024°20'1319.5
2017-Apr-23 19:20N 37°36' E 024°08'818.6
2017-Apr-23 18:54N 37°32' E 023°59'717.0
2017-Apr-23 18:30N 37°33' E 023°51'919.0
2017-Apr-23 18:01N 37°40' E 023°43'1019.3
2017-Apr-23 17:30N 37°49' E 023°37'815.0
2017-Apr-23 17:01N 37°56' E 023°38'0 0.0
2017-Apr-23 16:31N 37°56' E 023°38'0 0.0
2017-Apr-23 16:00N 37°56' E 023°38'0 0.0
2017-Apr-23 15:30N 37°56' E 023°38'0 0.0
2017-Apr-23 15:00N 37°56' E 023°38'0 0.0
2017-Apr-23 14:00N 37°56' E 023°38'0 0.0
2017-Apr-23 13:27N 37°56' E 023°38'0 0.0
2017-Apr-23 13:01N 37°56' E 023°38'0 0.0
2017-Apr-23 12:31N 37°56' E 023°38'0 0.0
2017-Apr-23 12:01N 37°56' E 023°38'0 0.0
2017-Apr-23 11:31N 37°56' E 023°38'0 0.0
2017-Apr-23 11:01N 37°56' E 023°38'1 1.6
2017-Apr-23 10:31N 37°56' E 023°37'1020.2
2017-Apr-23 10:01N 37°47' E 023°42'1121.7
2017-Apr-23 09:31N 37°38' E 023°51'4522.1
2017-Apr-23 07:28N 37°23' E 024°44'1022.1
2017-Apr-23 07:01N 37°18' E 024°55'1122.3
2017-Apr-23 06:31N 37°17' E 025°09'1122.1
2017-Apr-23 06:01N 37°16' E 025°23'1323.0
2017-Apr-23 05:27N 37°13' E 025°39'8 0.5
2017-Apr-22 14:09N 37°10' E 025°48'1624.9
2017-Apr-22 13:31N 37°14' E 025°28'1224.8
2017-Apr-22 13:01N 37°16' E 025°13'1224.6
2017-Apr-22 12:31N 37°18' E 024°58'4923.9
2017-Apr-22 10:27N 37°34' E 023°59'1124.9
2017-Apr-22 10:01N 37°38' E 023°46'1224.2
2017-Apr-22 09:31N 37°48' E 023°38'816.1
2017-Apr-22 09:00N 37°56' E 023°37'0 0.0
2017-Apr-22 08:28N 37°56' E 023°37'0 0.0
2017-Apr-22 07:58N 37°56' E 023°37'0 0.0
2017-Apr-22 07:30N 37°56' E 023°37'0 0.0
2017-Apr-22 07:00N 37°56' E 023°37'0 0.0
2017-Apr-22 06:30N 37°56' E 023°37'0 0.0
2017-Apr-22 06:00N 37°56' E 023°37'0 0.0
2017-Apr-22 05:30N 37°56' E 023°37'0 0.0
2017-Apr-22 05:00N 37°56' E 023°37'0 0.0
2017-Apr-22 04:30N 37°56' E 023°37'0 0.0
2017-Apr-22 04:00N 37°56' E 023°37'0 0.0
2017-Apr-22 03:30N 37°56' E 023°37'0 0.9
2017-Apr-22 03:00N 37°56' E 023°37'1020.1
2017-Apr-22 02:31N 37°47' E 023°42'1121.6
2017-Apr-22 02:00N 37°39' E 023°52'1122.8
2017-Apr-22 01:30N 37°38' E 024°06'1223.1
2017-Apr-22 01:00N 37°45' E 024°18'1222.8
2017-Apr-22 00:29N 37°53' E 024°29'1323.3
2017-Apr-21 23:55N 38°00' E 024°42'1522.2
2017-Apr-21 23:14N 38°04' E 025°01'13 0.5
2017-Apr-20 20:55N 38°02' E 024°45'920.9
2017-Apr-20 20:30N 37°56' E 024°36'1019.1
2017-Apr-20 20:00N 37°51' E 024°27'1119.0
2017-Apr-20 19:27N 37°44' E 024°17'1118.5
2017-Apr-20 18:51N 37°37' E 024°05'719.6
2017-Apr-20 18:30N 37°37' E 023°56'1019.7
2017-Apr-20 18:01N 37°39' E 023°45'1019.9
2017-Apr-20 17:30N 37°48' E 023°38'917.3
2017-Apr-20 17:00N 37°56' E 023°38'0 0.0
2017-Apr-20 16:30N 37°56' E 023°38'0 0.0
2017-Apr-20 15:59N 37°56' E 023°38'0 0.0
2017-Apr-20 15:23N 37°56' E 023°38'0 0.0
2017-Apr-20 14:59N 37°56' E 023°38'0 0.0
2017-Apr-20 14:29N 37°56' E 023°38'0 0.0
2017-Apr-20 13:28N 37°56' E 023°38'0 0.0
2017-Apr-20 12:55N 37°56' E 023°38'0 0.0
2017-Apr-20 12:28N 37°56' E 023°38'0 0.0
2017-Apr-20 11:58N 37°56' E 023°38'0 0.0
2017-Apr-20 11:28N 37°56' E 023°38'0 0.0
2017-Apr-20 10:58N 37°56' E 023°38'0 0.0
2017-Apr-20 10:28N 37°56' E 023°38'0 0.0
2017-Apr-20 09:58N 37°56' E 023°38'0 0.0
2017-Apr-20 09:28N 37°56' E 023°38'0 0.0
2017-Apr-20 08:58N 37°56' E 023°38'0 0.0
2017-Apr-20 08:28N 37°56' E 023°38'0 0.0
2017-Apr-20 07:55N 37°56' E 023°38'0 0.0
2017-Apr-20 07:28N 37°56' E 023°38'0 0.0
2017-Apr-20 06:52N 37°56' E 023°38'0 0.0
2017-Apr-20 06:30N 37°56' E 023°38'0 0.0
2017-Apr-20 06:00N 37°56' E 023°38'0 0.0
2017-Apr-20 05:30N 37°56' E 023°38'0 0.0
2017-Apr-20 05:00N 37°56' E 023°38'0 0.0
2017-Apr-20 04:30N 37°56' E 023°38'0 0.0
2017-Apr-20 04:00N 37°56' E 023°38'0 0.0
2017-Apr-20 03:30N 37°56' E 023°38'4 8.8
2017-Apr-20 03:00N 37°52' E 023°39'1122.7
2017-Apr-20 02:30N 37°42' E 023°45'1321.6
2017-Apr-20 01:55N 37°38' E 024°00'1121.0
2017-Apr-20 01:24N 37°43' E 024°13'922.3
2017-Apr-20 00:59N 37°48' E 024°22'1121.9
2017-Apr-20 00:30N 37°55' E 024°33'48 1.9
2017-Apr-18 23:35N 37°54' E 025°33'221.6
2017-Apr-18 23:30N 37°53' E 025°31'1019.7
2017-Apr-18 23:00N 37°52' E 025°19'2321.4
2017-Apr-18 21:56N 38°02' E 024°53'1220.9
2017-Apr-18 21:22N 37°59' E 024°39'821.7
2017-Apr-18 21:00N 37°53' E 024°31'1121.7
2017-Apr-18 20:29N 37°46' E 024°20'2020.6
2017-Apr-18 19:31N 37°37' E 023°58'021.0
2017-Apr-18 19:30N 37°37' E 023°58'1121.6
2017-Apr-18 19:00N 37°39' E 023°45'1121.3
2017-Apr-18 18:30N 37°48' E 023°38'816.2
2017-Apr-18 18:00N 37°56' E 023°38'0 0.0
2017-Apr-18 17:30N 37°56' E 023°38'0 0.0
2017-Apr-18 17:00N 37°56' E 023°38'0 0.0
2017-Apr-18 16:30N 37°56' E 023°38'4 7.7
2017-Apr-18 16:01N 37°53' E 023°39'1326.4
2017-Apr-18 15:31N 37°41' E 023°46'1326.3
2017-Apr-18 15:00N 37°37' E 024°02'3325.4
2017-Apr-18 13:41N 37°31' E 024°44'526.1
2017-Apr-18 13:30N 37°31' E 024°50'714.7
2017-Apr-18 13:00N 37°26' E 024°57'0 0.4
2017-Apr-18 12:31N 37°26' E 024°57'1020.0
2017-Apr-18 12:01N 37°18' E 025°03'1325.6
2017-Apr-18 11:31N 37°05' E 025°07'0 0.4
2017-Apr-18 11:00N 37°05' E 025°07'1020.3
2017-Apr-18 10:31N 37°09' E 025°19'4 8.1
2017-Apr-18 10:00N 37°06' E 025°22'5 9.8
2017-Apr-18 09:31N 37°10' E 025°18'1325.2
2017-Apr-18 09:01N 37°16' E 025°04'1325.6
2017-Apr-18 08:31N 37°21' E 024°50'3825.2
2017-Apr-18 07:00N 37°33' E 024°04'1325.6
2017-Apr-18 06:31N 37°38' E 023°49'1224.4
2017-Apr-18 06:01N 37°47' E 023°39'1019.8
2017-Apr-18 05:30N 37°56' E 023°37'0 0.0
2017-Apr-18 05:01N 37°56' E 023°37'0 0.0
2017-Apr-18 04:30N 37°56' E 023°37'0 0.1
2017-Apr-18 04:01N 37°56' E 023°38'917.8
2017-Apr-18 03:31N 37°48' E 023°42'1224.0
2017-Apr-18 03:01N 37°39' E 023°52'1623.4
2017-Apr-18 02:19N 37°42' E 024°12'826.1
2017-Apr-18 02:00N 37°47' E 024°20'1326.1
2017-Apr-18 01:30N 37°55' E 024°33'  
Track history (hours):
 
Tides and Currents Weather Stations Pressure Air Temp Water Temp Dewpoint Dewpoint Depression Visibility Wind Speed Wind Dir Waves Ship Positions

Blue Star 1

Last reported at 2017-Apr-25 08:26 UTC. Time now 2017-Apr-25 08:43 UTC.
Position N 37°56' E 023°38'.

Length 176 m; draft 6.5 m.

Type: Passenger vessel. MMSI: 239710000.

Date/timePositionNaut miles runAvg speedWind from/ knotsBaromVisibWave heightAir tempDewpointWater temp
2017-Apr-25 08:26N 37°56' E 023°38'0 0.0
2017-Apr-25 07:59N 37°56' E 023°38'0 0.0
2017-Apr-25 07:29N 37°56' E 023°38'0 0.0
2017-Apr-25 06:59N 37°56' E 023°38'0 0.0
2017-Apr-25 06:29N 37°56' E 023°38'0 0.0
2017-Apr-25 05:59N 37°56' E 023°38'0 0.0
2017-Apr-25 05:29N 37°56' E 023°38'0 0.0
2017-Apr-25 04:59N 37°56' E 023°38'0 0.0
2017-Apr-25 04:29N 37°56' E 023°38'0 0.2
2017-Apr-25 04:01N 37°56' E 023°38'1019.6
2017-Apr-25 03:31N 37°47' E 023°42'1224.6
2017-Apr-25 03:01N 37°39' E 023°53'1624.0
2017-Apr-25 02:21N 37°42' E 024°13'926.0
2017-Apr-25 02:01N 37°48' E 024°21'1326.1
2017-Apr-25 01:30N 37°56' E 024°34'9 0.3
2017-Apr-23 21:15N 38°01' E 024°44'519.7
2017-Apr-23 21:00N 37°58' E 024°39'1019.5
2017-Apr-23 20:30N 37°52' E 024°30'1019.5
2017-Apr-23 20:01N 37°46' E 024°20'1319.5
2017-Apr-23 19:20N 37°36' E 024°08'818.6
2017-Apr-23 18:54N 37°32' E 023°59'717.0
2017-Apr-23 18:30N 37°33' E 023°51'919.0
2017-Apr-23 18:01N 37°40' E 023°43'1019.3
2017-Apr-23 17:30N 37°49' E 023°37'815.0
2017-Apr-23 17:01N 37°56' E 023°38'0 0.0
2017-Apr-23 16:31N 37°56' E 023°38'0 0.0
2017-Apr-23 16:00N 37°56' E 023°38'0 0.0
2017-Apr-23 15:30N 37°56' E 023°38'0 0.0
2017-Apr-23 15:00N 37°56' E 023°38'0 0.0
2017-Apr-23 14:00N 37°56' E 023°38'0 0.0
2017-Apr-23 13:27N 37°56' E 023°38'0 0.0
2017-Apr-23 13:01N 37°56' E 023°38'0 0.0
2017-Apr-23 12:31N 37°56' E 023°38'0 0.0
2017-Apr-23 12:01N 37°56' E 023°38'0 0.0
2017-Apr-23 11:31N 37°56' E 023°38'0 0.0
2017-Apr-23 11:01N 37°56' E 023°38'1 1.6
2017-Apr-23 10:31N 37°56' E 023°37'1020.2
2017-Apr-23 10:01N 37°47' E 023°42'1121.7
2017-Apr-23 09:31N 37°38' E 023°51'4522.1
2017-Apr-23 07:28N 37°23' E 024°44'1022.1
2017-Apr-23 07:01N 37°18' E 024°55'1122.3
2017-Apr-23 06:31N 37°17' E 025°09'1122.1
2017-Apr-23 06:01N 37°16' E 025°23'1323.0
2017-Apr-23 05:27N 37°13' E 025°39'8 0.5
2017-Apr-22 14:09N 37°10' E 025°48'1624.9
2017-Apr-22 13:31N 37°14' E 025°28'1224.8
2017-Apr-22 13:01N 37°16' E 025°13'1224.6
2017-Apr-22 12:31N 37°18' E 024°58'4923.9
2017-Apr-22 10:27N 37°34' E 023°59'1124.9
2017-Apr-22 10:01N 37°38' E 023°46'1224.2
2017-Apr-22 09:31N 37°48' E 023°38'816.1
2017-Apr-22 09:00N 37°56' E 023°37'0 0.0
2017-Apr-22 08:28N 37°56' E 023°37'0 0.0
2017-Apr-22 07:58N 37°56' E 023°37'0 0.0
2017-Apr-22 07:30N 37°56' E 023°37'0 0.0
2017-Apr-22 07:00N 37°56' E 023°37'0 0.0
2017-Apr-22 06:30N 37°56' E 023°37'0 0.0
2017-Apr-22 06:00N 37°56' E 023°37'0 0.0
2017-Apr-22 05:30N 37°56' E 023°37'0 0.0
2017-Apr-22 05:00N 37°56' E 023°37'0 0.0
2017-Apr-22 04:30N 37°56' E 023°37'0 0.0
2017-Apr-22 04:00N 37°56' E 023°37'0 0.0
2017-Apr-22 03:30N 37°56' E 023°37'0 0.9
2017-Apr-22 03:00N 37°56' E 023°37'1020.1
2017-Apr-22 02:31N 37°47' E 023°42'1121.6
2017-Apr-22 02:00N 37°39' E 023°52'1122.8
2017-Apr-22 01:30N 37°38' E 024°06'1223.1
2017-Apr-22 01:00N 37°45' E 024°18'1222.8
2017-Apr-22 00:29N 37°53' E 024°29'1323.3
2017-Apr-21 23:55N 38°00' E 024°42'1522.2
2017-Apr-21 23:14N 38°04' E 025°01'13 0.5
2017-Apr-20 20:55N 38°02' E 024°45'920.9
2017-Apr-20 20:30N 37°56' E 024°36'1019.1
2017-Apr-20 20:00N 37°51' E 024°27'1119.0
2017-Apr-20 19:27N 37°44' E 024°17'1118.5
2017-Apr-20 18:51N 37°37' E 024°05'719.6
2017-Apr-20 18:30N 37°37' E 023°56'1019.7
2017-Apr-20 18:01N 37°39' E 023°45'1019.9
2017-Apr-20 17:30N 37°48' E 023°38'917.3
2017-Apr-20 17:00N 37°56' E 023°38'0 0.0
2017-Apr-20 16:30N 37°56' E 023°38'0 0.0
2017-Apr-20 15:59N 37°56' E 023°38'0 0.0
2017-Apr-20 15:23N 37°56' E 023°38'0 0.0
2017-Apr-20 14:59N 37°56' E 023°38'0 0.0
2017-Apr-20 14:29N 37°56' E 023°38'0 0.0
2017-Apr-20 13:28N 37°56' E 023°38'0 0.0
2017-Apr-20 12:55N 37°56' E 023°38'0 0.0
2017-Apr-20 12:28N 37°56' E 023°38'0 0.0
2017-Apr-20 11:58N 37°56' E 023°38'0 0.0
2017-Apr-20 11:28N 37°56' E 023°38'0 0.0
2017-Apr-20 10:58N 37°56' E 023°38'0 0.0
2017-Apr-20 10:28N 37°56' E 023°38'0 0.0
2017-Apr-20 09:58N 37°56' E 023°38'0 0.0
2017-Apr-20 09:28N 37°56' E 023°38'0 0.0
2017-Apr-20 08:58N 37°56' E 023°38'0 0.0
2017-Apr-20 08:28N 37°56' E 023°38'0 0.0
2017-Apr-20 07:55N 37°56' E 023°38'0 0.0
2017-Apr-20 07:28N 37°56' E 023°38'0 0.0
2017-Apr-20 06:52N 37°56' E 023°38'0 0.0
2017-Apr-20 06:30N 37°56' E 023°38'0 0.0
2017-Apr-20 06:00N 37°56' E 023°38'0 0.0
2017-Apr-20 05:30N 37°56' E 023°38'0 0.0
2017-Apr-20 05:00N 37°56' E 023°38'0 0.0
2017-Apr-20 04:30N 37°56' E 023°38'0 0.0
2017-Apr-20 04:00N 37°56' E 023°38'0 0.0
2017-Apr-20 03:30N 37°56' E 023°38'4 8.8
2017-Apr-20 03:00N 37°52' E 023°39'1122.7
2017-Apr-20 02:30N 37°42' E 023°45'1321.6
2017-Apr-20 01:55N 37°38' E 024°00'1121.0
2017-Apr-20 01:24N 37°43' E 024°13'922.3
2017-Apr-20 00:59N 37°48' E 024°22'1121.9
2017-Apr-20 00:30N 37°55' E 024°33'48 1.9
2017-Apr-18 23:35N 37°54' E 025°33'221.6
2017-Apr-18 23:30N 37°53' E 025°31'1019.7
2017-Apr-18 23:00N 37°52' E 025°19'2321.4
2017-Apr-18 21:56N 38°02' E 024°53'1220.9
2017-Apr-18 21:22N 37°59' E 024°39'821.7
2017-Apr-18 21:00N 37°53' E 024°31'1121.7
2017-Apr-18 20:29N 37°46' E 024°20'2020.6
2017-Apr-18 19:31N 37°37' E 023°58'021.0
2017-Apr-18 19:30N 37°37' E 023°58'1121.6
2017-Apr-18 19:00N 37°39' E 023°45'1121.3
2017-Apr-18 18:30N 37°48' E 023°38'816.2
2017-Apr-18 18:00N 37°56' E 023°38'0 0.0
2017-Apr-18 17:30N 37°56' E 023°38'0 0.0
2017-Apr-18 17:00N 37°56' E 023°38'0 0.0
2017-Apr-18 16:30N 37°56' E 023°38'4 7.7
2017-Apr-18 16:01N 37°53' E 023°39'1326.4
2017-Apr-18 15:31N 37°41' E 023°46'1326.3
2017-Apr-18 15:00N 37°37' E 024°02'3325.4
2017-Apr-18 13:41N 37°31' E 024°44'526.1
2017-Apr-18 13:30N 37°31' E 024°50'714.7
2017-Apr-18 13:00N 37°26' E 024°57'0 0.4
2017-Apr-18 12:31N 37°26' E 024°57'1020.0
2017-Apr-18 12:01N 37°18' E 025°03'1325.6
2017-Apr-18 11:31N 37°05' E 025°07'0 0.4
2017-Apr-18 11:00N 37°05' E 025°07'1020.3
2017-Apr-18 10:31N 37°09' E 025°19'4 8.1
2017-Apr-18 10:00N 37°06' E 025°22'5 9.8
2017-Apr-18 09:31N 37°10' E 025°18'1325.2
2017-Apr-18 09:01N 37°16' E 025°04'1325.6
2017-Apr-18 08:31N 37°21' E 024°50'3825.2
2017-Apr-18 07:00N 37°33' E 024°04'1325.6
2017-Apr-18 06:31N 37°38' E 023°49'1224.4
2017-Apr-18 06:01N 37°47' E 023°39'1019.8
2017-Apr-18 05:30N 37°56' E 023°37'0 0.0
2017-Apr-18 05:01N 37°56' E 023°37'0 0.0
2017-Apr-18 04:30N 37°56' E 023°37'0 0.1
2017-Apr-18 04:01N 37°56' E 023°38'917.8
2017-Apr-18 03:31N 37°48' E 023°42'1224.0
2017-Apr-18 03:01N 37°39' E 023°52'1623.4
2017-Apr-18 02:19N 37°42' E 024°12'826.1
2017-Apr-18 02:00N 37°47' E 024°20'1326.1
2017-Apr-18 01:30N 37°55' E 024°33'  

Dump ship's entire track history